createdAt,value
2023-03-02T00:02:01.746Z,102226.94
2023-03-02T00:04:46.367Z,102226.59
2023-03-02T00:07:16.884Z,102231.56
2023-03-02T00:09:44.543Z,102232.94
2023-03-02T00:12:11.717Z,102226.44
2023-03-02T00:14:38.165Z,102225.75
2023-03-02T00:17:05.295Z,102220.94
2023-03-02T00:19:31.721Z,102228.66
2023-03-02T00:21:58.136Z,102229.53
2023-03-02T00:24:24.559Z,102222.50
2023-03-02T00:26:50.944Z,102224.69
2023-03-02T00:29:17.417Z,102223.69
2023-03-02T00:31:43.959Z,102219.06
2023-03-02T00:34:10.397Z,102221.66
2023-03-02T00:36:36.807Z,102224.91
2023-03-02T00:39:04.475Z,102220.44
2023-03-02T00:41:30.873Z,102220.25
2023-03-02T00:43:57.256Z,102216.81
2023-03-02T00:46:25.176Z,102220.59
2023-03-02T00:48:52.742Z,102223.50
2023-03-02T00:51:19.568Z,102218.56
2023-03-02T00:53:46.475Z,102222.16
2023-03-02T00:56:13.204Z,102215.81
2023-03-02T00:58:44.754Z,102215.13
2023-03-02T01:01:13.493Z,102224.75
2023-03-02T01:03:44.766Z,102220.75
2023-03-02T01:06:19.911Z,102221.31
2023-03-02T01:08:46.507Z,102216.81
2023-03-02T01:11:18.219Z,102213.06
2023-03-02T01:13:45.692Z,102216.66
2023-03-02T01:16:12.656Z,102211.66
2023-03-02T01:18:39.790Z,102208.25
2023-03-02T01:21:09.533Z,102211.31
2023-03-02T01:23:35.957Z,102213.41
2023-03-02T01:26:03.121Z,102200.34
2023-03-02T01:28:29.517Z,102206.19
2023-03-02T01:30:55.967Z,102202.94
2023-03-02T01:33:22.829Z,102202.94
2023-03-02T01:35:49.593Z,102204.81
2023-03-02T01:38:16.088Z,102201.72
2023-03-02T01:40:43.601Z,102201.88
2023-03-02T01:43:13.500Z,102197.28
2023-03-02T01:45:53.108Z,102188.69
2023-03-02T01:48:31.617Z,102193.34
2023-03-02T01:50:58.705Z,102183.88
2023-03-02T01:53:29.240Z,102187.31
2023-03-02T01:55:57.135Z,102187.16
2023-03-02T01:58:25.872Z,102179.91
2023-03-02T02:00:54.559Z,102178.56
2023-03-02T02:03:24.862Z,102167.44
2023-03-02T02:06:08.972Z,102170.84
2023-03-02T02:08:36.503Z,102164.00
2023-03-02T02:11:03.306Z,102161.94
2023-03-02T02:13:30.266Z,102163.44
2023-03-02T02:15:56.665Z,102163.13
2023-03-02T02:18:23.734Z,102168.94
2023-03-02T02:20:54.000Z,102169.13
2023-03-02T02:23:34.362Z,102168.41
2023-03-02T02:26:29.210Z,102171.69
2023-03-02T02:29:00.502Z,102166.53
2023-03-02T02:31:35.241Z,102170.47
2023-03-02T02:34:13.816Z,102159.50
2023-03-02T02:36:43.439Z,102167.94
2023-03-02T02:39:21.238Z,102167.94
2023-03-02T02:41:50.852Z,102164.00
2023-03-02T02:44:19.187Z,102167.44
2023-03-02T02:46:45.861Z,102164.84
2023-03-02T02:49:29.033Z,102155.75
2023-03-02T02:51:55.469Z,102164.47
2023-03-02T02:54:23.005Z,102154.03
2023-03-02T02:56:50.984Z,102163.75
2023-03-02T02:59:22.645Z,102156.22
2023-03-02T03:01:50.688Z,102154.50
2023-03-02T03:04:24.341Z,102158.25
2023-03-02T03:06:56.631Z,102154.16
2023-03-02T03:09:23.941Z,102146.41
2023-03-02T03:11:52.759Z,102149.16
2023-03-02T03:14:22.450Z,102151.25
2023-03-02T03:16:51.781Z,102155.03
2023-03-02T03:19:24.170Z,102156.75
2023-03-02T03:21:55.200Z,102156.06
2023-03-02T03:24:25.090Z,102155.00
2023-03-02T03:26:54.167Z,102153.31
2023-03-02T03:29:24.079Z,102153.13
2023-03-02T03:31:53.359Z,102150.56
2023-03-02T03:34:21.237Z,102149.00
2023-03-02T03:36:47.962Z,102146.97
2023-03-02T03:39:16.152Z,102143.34
2023-03-02T03:41:43.511Z,102144.88
2023-03-02T03:44:11.267Z,102143.69
2023-03-02T03:46:40.229Z,102145.78
2023-03-02T03:49:06.807Z,102144.03
2023-03-02T03:51:35.296Z,102148.63
2023-03-02T03:54:05.305Z,102147.75
2023-03-02T03:56:39.165Z,102149.09
2023-03-02T03:59:08.051Z,102144.59
2023-03-02T04:01:47.177Z,102149.63
2023-03-02T04:04:24.531Z,102145.34
2023-03-02T04:06:51.527Z,102141.44
2023-03-02T04:09:19.179Z,102145.16
2023-03-02T04:11:48.860Z,102138.09
2023-03-02T04:14:16.909Z,102140.84
2023-03-02T04:16:44.385Z,102137.09
2023-03-02T04:19:12.825Z,102145.16
2023-03-02T04:21:45.005Z,102143.44
2023-03-02T04:24:13.261Z,102143.09
2023-03-02T04:26:42.044Z,102147.06
2023-03-02T04:29:10.259Z,102139.03
2023-03-02T04:31:38.467Z,102157.34
2023-03-02T04:34:05.863Z,102143.31
2023-03-02T04:36:35.671Z,102150.84
2023-03-02T04:39:05.318Z,102147.41
2023-03-02T04:41:32.568Z,102144.69
2023-03-02T04:43:59.088Z,102150.31
2023-03-02T04:46:27.112Z,102150.47
2023-03-02T04:48:54.328Z,102154.94
2023-03-02T04:51:25.081Z,102156.09
2023-03-02T04:53:57.731Z,102162.78
2023-03-02T04:56:24.280Z,102156.25
2023-03-02T04:58:50.769Z,102160.00
2023-03-02T05:01:18.658Z,102156.09
2023-03-02T05:03:45.872Z,102157.31
2023-03-02T05:06:12.725Z,102158.19
2023-03-02T05:08:39.763Z,102156.09
2023-03-02T05:11:07.828Z,102149.94
2023-03-02T05:13:35.277Z,102154.53
2023-03-02T05:16:01.815Z,102143.75
2023-03-02T05:18:28.289Z,102146.31
2023-03-02T05:20:55.254Z,102142.75
2023-03-02T05:23:27.045Z,102135.38
2023-03-02T05:25:55.679Z,102134.50
2023-03-02T05:28:24.552Z,102145.63
2023-03-02T05:30:51.562Z,102156.78
2023-03-02T05:33:19.157Z,102150.06
2023-03-02T05:35:46.142Z,102154.53
2023-03-02T05:38:13.212Z,102154.16
2023-03-02T05:40:40.277Z,102158.97
2023-03-02T05:43:07.293Z,102153.16
2023-03-02T05:45:37.172Z,102149.59
2023-03-02T05:48:04.775Z,102148.41
2023-03-02T05:50:31.892Z,102150.09
2023-03-02T05:53:00.119Z,102147.53
2023-03-02T05:55:26.624Z,102145.31
2023-03-02T05:57:53.167Z,102143.25
2023-03-02T06:00:20.641Z,102151.97
2023-03-02T06:02:47.645Z,102151.44
2023-03-02T06:05:17.026Z,102147.69
2023-03-02T06:07:44.319Z,102154.53
2023-03-02T06:10:12.503Z,102153.50
2023-03-02T06:12:39.251Z,102163.13
2023-03-02T06:15:07.188Z,102156.25
2023-03-02T06:17:46.024Z,102153.88
2023-03-02T06:20:13.213Z,102156.25
2023-03-02T06:22:42.055Z,102158.66
2023-03-02T06:25:10.352Z,102159.72
2023-03-02T06:27:38.877Z,102164.16
2023-03-02T06:30:08.762Z,102170.50
2023-03-02T06:32:35.547Z,102168.09
2023-03-02T06:35:03.184Z,102176.84
2023-03-02T06:37:30.062Z,102176.38
2023-03-02T06:39:57.423Z,102175.00
2023-03-02T06:42:25.118Z,102172.63
2023-03-02T06:44:51.785Z,102179.19
2023-03-02T06:47:18.698Z,102175.75
2023-03-02T06:49:45.133Z,102178.34
2023-03-02T06:52:13.518Z,102174.41
2023-03-02T06:54:40.549Z,102179.19
2023-03-02T06:57:07.529Z,102178.72
2023-03-02T06:59:34.780Z,102180.06
2023-03-02T07:02:01.352Z,102179.91
2023-03-02T07:04:30.444Z,102179.38
2023-03-02T07:06:57.072Z,102183.69
2023-03-02T07:09:23.582Z,102178.03
2023-03-02T07:11:49.977Z,102174.25
2023-03-02T07:14:16.353Z,102179.22
2023-03-02T07:16:42.800Z,102183.34
2023-03-02T07:19:13.891Z,102177.19
2023-03-02T07:21:40.338Z,102176.66
2023-03-02T07:24:07.483Z,102167.94
2023-03-02T07:26:33.956Z,102174.97
2023-03-02T07:29:00.905Z,102182.84
2023-03-02T07:31:27.890Z,102187.66
2023-03-02T07:33:54.411Z,102184.22
2023-03-02T07:36:21.008Z,102184.22
2023-03-02T07:38:48.555Z,102188.16
2023-03-02T07:41:16.683Z,102190.91
2023-03-02T07:43:43.349Z,102179.41
2023-03-02T07:46:09.785Z,102180.78
2023-03-02T07:48:36.213Z,102180.28
2023-03-02T07:51:05.031Z,102177.72
2023-03-02T07:53:31.551Z,102180.78
2023-03-02T07:55:58.100Z,102187.28
2023-03-02T07:58:24.531Z,102188.50
2023-03-02T08:00:51.082Z,102186.59
2023-03-02T08:03:17.513Z,102188.81
2023-03-02T08:05:43.915Z,102183.47
2023-03-02T08:08:10.340Z,102187.41
2023-03-02T08:10:37.050Z,102180.72
2023-03-02T08:13:03.870Z,102174.19
2023-03-02T08:15:30.323Z,102177.97
2023-03-02T08:17:56.728Z,102180.72
2023-03-02T08:20:23.265Z,102180.94
2023-03-02T08:22:50.105Z,102185.72
2023-03-02T08:25:16.540Z,102185.72
2023-03-02T08:27:44.132Z,102181.91
2023-03-02T08:30:10.991Z,102183.66
2023-03-02T08:32:37.462Z,102182.44
2023-03-02T08:35:04.785Z,102178.50
2023-03-02T08:37:31.440Z,102173.16
2023-03-02T08:39:58.886Z,102174.19
2023-03-02T08:42:25.364Z,102178.28
2023-03-02T08:44:51.760Z,102175.03
2023-03-02T08:47:18.155Z,102174.31
2023-03-02T08:49:45.569Z,102165.50
2023-03-02T08:52:15.203Z,102167.16
2023-03-02T08:54:41.644Z,102165.97
2023-03-02T08:57:11.530Z,102159.22
2023-03-02T08:59:37.969Z,102161.97
2023-03-02T09:02:04.352Z,102158.13
2023-03-02T09:04:30.846Z,102153.81
2023-03-02T09:06:57.272Z,102154.25
2023-03-02T09:09:23.695Z,102151.94
2023-03-02T09:11:50.123Z,102151.78
2023-03-02T09:14:16.659Z,102148.59
2023-03-02T09:16:43.173Z,102146.06
2023-03-02T09:19:11.594Z,102144.09
2023-03-02T09:21:37.990Z,102149.53
2023-03-02T09:24:04.647Z,102149.06
2023-03-02T09:26:31.065Z,102137.59
2023-03-02T09:28:57.618Z,102135.09
2023-03-02T09:31:24.071Z,102131.34
2023-03-02T09:33:50.503Z,102139.72
2023-03-02T09:36:22.944Z,102141.63
2023-03-02T09:38:49.600Z,102136.91
2023-03-02T09:41:18.721Z,102142.84
2023-03-02T09:44:03.296Z,102134.97
2023-03-02T09:46:54.307Z,102130.00
2023-03-02T09:49:55.478Z,102132.53
2023-03-02T09:52:31.589Z,102134.06
2023-03-02T09:55:06.819Z,102141.63
2023-03-02T09:57:38.463Z,102142.47
2023-03-02T10:00:19.553Z,102138.09
2023-03-02T10:02:48.319Z,102136.41
2023-03-02T10:05:22.867Z,102138.88
2023-03-02T10:07:49.628Z,102148.13
2023-03-02T10:10:29.169Z,102139.94
2023-03-02T10:13:25.058Z,102141.00
2023-03-02T10:16:03.353Z,102138.31
2023-03-02T10:18:43.768Z,102138.13
2023-03-02T10:21:25.213Z,102140.34
2023-03-02T10:23:56.222Z,102139.09
2023-03-02T10:26:42.844Z,102141.72
2023-03-02T10:29:43.076Z,102131.00
2023-03-02T10:32:22.710Z,102128.63
2023-03-02T10:34:53.446Z,102138.22
2023-03-02T10:37:25.046Z,102138.22
2023-03-02T10:39:52.742Z,102131.00
2023-03-02T10:42:37.577Z,102127.75
2023-03-02T10:45:27.695Z,102134.91
2023-03-02T10:48:01.174Z,102138.22
2023-03-02T10:50:27.562Z,102131.88
2023-03-02T10:53:00.138Z,102132.00
2023-03-02T10:55:27.438Z,102121.97
2023-03-02T10:58:06.994Z,102120.81
2023-03-02T11:00:34.862Z,102123.78
2023-03-02T11:03:05.801Z,102127.88
2023-03-02T11:05:37.848Z,102129.66
2023-03-02T11:08:09.281Z,102125.47
2023-03-02T11:10:55.764Z,102124.16
2023-03-02T11:13:36.928Z,102117.06
2023-03-02T11:16:21.740Z,102117.00
2023-03-02T11:19:13.682Z,102120.81
2023-03-02T11:21:47.423Z,102117.84
2023-03-02T11:24:40.170Z,102117.59
2023-03-02T11:27:13.547Z,102113.09
2023-03-02T11:29:58.686Z,102116.31
2023-03-02T11:32:34.547Z,102111.09
2023-03-02T11:35:12.217Z,102112.84
2023-03-02T11:37:52.180Z,102101.66
2023-03-02T11:40:23.700Z,102096.47
2023-03-02T11:42:51.202Z,102097.88
2023-03-02T11:45:22.460Z,102099.56
2023-03-02T11:48:02.627Z,102094.56
2023-03-02T11:50:34.381Z,102092.88
2023-03-02T11:53:06.172Z,102094.03
2023-03-02T11:55:39.847Z,102089.03
2023-03-02T11:58:07.341Z,102090.53
2023-03-02T12:00:37.278Z,102090.59
2023-03-02T12:03:20.756Z,102083.75
2023-03-02T12:06:05.328Z,102085.47
2023-03-02T12:08:37.922Z,102085.91
2023-03-02T12:11:18.487Z,102080.69
2023-03-02T12:13:54.267Z,102075.78
2023-03-02T12:16:42.059Z,102070.84
2023-03-02T12:19:41.390Z,102074.25
2023-03-02T12:22:12.219Z,102067.22
2023-03-02T12:24:41.873Z,102063.44
2023-03-02T12:27:20.739Z,102050.97
2023-03-02T12:29:51.451Z,102051.47
2023-03-02T12:32:20.948Z,102050.09
2023-03-02T12:34:54.962Z,102048.47
2023-03-02T12:37:46.994Z,102043.75
2023-03-02T12:40:33.795Z,102043.75
2023-03-02T12:43:24.690Z,102044.22
2023-03-02T12:46:13.617Z,102029.53
2023-03-02T12:49:03.346Z,102028.28
2023-03-02T12:51:43.216Z,102037.03
2023-03-02T12:54:16.452Z,102029.38
2023-03-02T12:56:43.562Z,102028.28
2023-03-02T12:59:25.740Z,102034.88
2023-03-02T13:01:52.286Z,102029.53
2023-03-02T13:04:24.198Z,102025.91
2023-03-02T13:06:51.186Z,102023.34
2023-03-02T13:09:20.249Z,102022.03
2023-03-02T13:11:48.848Z,102028.88
2023-03-02T13:14:21.134Z,102018.66
2023-03-02T13:17:25.024Z,102011.63
2023-03-02T13:19:52.621Z,102012.25
2023-03-02T13:22:20.550Z,102008.00
2023-03-02T13:24:51.672Z,102007.44
2023-03-02T13:27:22.523Z,102015.00
2023-03-02T13:29:49.664Z,102012.59
2023-03-02T13:32:17.973Z,102006.00
2023-03-02T13:34:53.555Z,102010.84
2023-03-02T13:37:33.878Z,102009.63
2023-03-02T13:40:07.244Z,102003.59
2023-03-02T13:42:40.080Z,101998.81
2023-03-02T13:45:22.381Z,101990.88
2023-03-02T13:47:48.837Z,101987.69
2023-03-02T13:50:20.583Z,101988.97
2023-03-02T13:52:48.106Z,101986.69
2023-03-02T13:55:17.369Z,101980.59
2023-03-02T13:57:45.883Z,101977.38
2023-03-02T14:00:22.046Z,101971.38
2023-03-02T14:02:50.394Z,101977.59
2023-03-02T14:05:19.113Z,101976.53
2023-03-02T14:07:46.443Z,101976.72
2023-03-02T14:10:17.779Z,101964.16
2023-03-02T14:12:54.143Z,101959.94
2023-03-02T14:15:20.710Z,101969.59
2023-03-02T14:17:49.122Z,101964.50
2023-03-02T14:20:19.243Z,101957.03
2023-03-02T14:22:46.688Z,101963.47
2023-03-02T14:25:13.683Z,101970.72
2023-03-02T14:27:41.301Z,101958.34
2023-03-02T14:30:19.951Z,101960.06
2023-03-02T14:32:46.678Z,101949.63
2023-03-02T14:35:16.465Z,101944.97
2023-03-02T14:37:46.960Z,101936.88
2023-03-02T14:40:20.956Z,101940.69
2023-03-02T14:42:48.454Z,101936.19
2023-03-02T14:45:14.849Z,101938.53
2023-03-02T14:47:41.241Z,101931.13
2023-03-02T14:50:09.090Z,101930.91
2023-03-02T14:52:39.965Z,101921.53
2023-03-02T14:55:23.633Z,101923.44
2023-03-02T14:57:54.633Z,101919.78
2023-03-02T15:00:21.618Z,101919.38
2023-03-02T15:02:48.333Z,101925.38
2023-03-02T15:05:14.965Z,101919.81
2023-03-02T15:07:41.442Z,101924.09
2023-03-02T15:10:12.450Z,101927.44
2023-03-02T15:12:38.773Z,101923.66
2023-03-02T15:15:05.473Z,101928.34
2023-03-02T15:17:31.935Z,101925.78
2023-03-02T15:19:58.323Z,101923.44
2023-03-02T15:22:24.889Z,101928.31
2023-03-02T15:24:51.320Z,101929.59
2023-03-02T15:27:18.530Z,101921.50
2023-03-02T15:29:46.229Z,101931.69
2023-03-02T15:32:13.371Z,101925.72
2023-03-02T15:34:40.169Z,101921.91
2023-03-02T15:37:06.866Z,101917.00
2023-03-02T15:39:34.003Z,101911.00
2023-03-02T15:42:01.088Z,101925.28
2023-03-02T15:44:29.578Z,101917.56
2023-03-02T15:46:58.382Z,101909.44
2023-03-02T15:49:27.958Z,101915.81
2023-03-02T15:51:57.593Z,101911.34
2023-03-02T15:54:28.005Z,101915.22
2023-03-02T15:56:54.505Z,101910.69
2023-03-02T15:59:26.533Z,101908.13
2023-03-02T16:01:53.560Z,101906.44
2023-03-02T16:04:20.282Z,101905.56
2023-03-02T16:06:46.700Z,101897.47
2023-03-02T16:09:13.131Z,101893.63
2023-03-02T16:11:39.580Z,101914.31
2023-03-02T16:14:06.072Z,101901.75
2023-03-02T16:16:32.930Z,101898.56
2023-03-02T16:18:59.459Z,101892.78
2023-03-02T16:21:28.328Z,101904.84
2023-03-02T16:23:56.323Z,101899.34
2023-03-02T16:26:22.892Z,101898.44
2023-03-02T16:28:49.324Z,101891.66
2023-03-02T16:31:18.739Z,101893.53
2023-03-02T16:33:46.129Z,101895.72
2023-03-02T16:36:14.346Z,101901.56
2023-03-02T16:38:41.444Z,101900.75
2023-03-02T16:41:14.346Z,101903.19
2023-03-02T16:43:46.980Z,101902.84
2023-03-02T16:46:13.673Z,101906.22
2023-03-02T16:48:40.233Z,101904.50
2023-03-02T16:51:06.739Z,101913.63
2023-03-02T16:53:33.400Z,101912.97
2023-03-02T16:55:59.922Z,101912.44
2023-03-02T16:58:26.404Z,101913.28
2023-03-02T17:00:53.130Z,101917.03
2023-03-02T17:03:19.686Z,101915.00
2023-03-02T17:05:46.134Z,101918.97
2023-03-02T17:08:14.382Z,101925.34
2023-03-02T17:10:41.703Z,101925.75
2023-03-02T17:13:08.340Z,101926.16
2023-03-02T17:15:34.851Z,101928.25
2023-03-02T17:18:01.309Z,101932.88
2023-03-02T17:20:27.827Z,101932.47
2023-03-02T17:22:54.637Z,101932.59
2023-03-02T17:25:21.727Z,101939.22
2023-03-02T17:27:48.108Z,101937.31
2023-03-02T17:30:15.661Z,101942.78
2023-03-02T17:32:42.278Z,101944.22
2023-03-02T17:35:11.281Z,101942.44
2023-03-02T17:37:38.098Z,101945.81
2023-03-02T17:40:06.614Z,101941.00
2023-03-02T17:42:33.113Z,101944.22
2023-03-02T17:44:59.515Z,101935.13
2023-03-02T17:47:26.077Z,101932.78
2023-03-02T17:49:52.488Z,101939.38
2023-03-02T17:52:19.280Z,101935.63
2023-03-02T17:54:46.092Z,101946.69
2023-03-02T17:57:13.336Z,101942.63
2023-03-02T17:59:39.731Z,101949.72
2023-03-02T18:02:06.128Z,101949.53
2023-03-02T18:04:32.562Z,101952.69
2023-03-02T18:06:59.018Z,101943.63
2023-03-02T18:09:25.432Z,101955.34
2023-03-02T18:11:52.033Z,101952.97
2023-03-02T18:14:20.273Z,101954.50
2023-03-02T18:16:47.875Z,101956.34
2023-03-02T18:19:14.417Z,101960.06
2023-03-02T18:21:41.763Z,101955.91
2023-03-02T18:24:09.352Z,101959.41
2023-03-02T18:26:35.797Z,101954.28
2023-03-02T18:29:02.324Z,101960.19
2023-03-02T18:31:28.992Z,101953.34
2023-03-02T18:33:55.449Z,101959.97
2023-03-02T18:36:21.897Z,101958.28
2023-03-02T18:38:48.329Z,101961.72
2023-03-02T18:41:17.385Z,101955.78
2023-03-02T18:43:43.889Z,101959.53
2023-03-02T18:46:25.482Z,101957.84
2023-03-02T18:48:52.907Z,101958.59
2023-03-02T18:51:20.872Z,101954.94
2023-03-02T18:53:47.768Z,101968.06
2023-03-02T18:56:14.585Z,101962.66
2023-03-02T18:58:41.682Z,101959.38
2023-03-02T19:01:09.064Z,101963.06
2023-03-02T19:03:37.025Z,101960.84
2023-03-02T19:06:04.085Z,101960.63
2023-03-02T19:08:30.758Z,101951.63
2023-03-02T19:10:57.243Z,101956.00
2023-03-02T19:13:23.931Z,101950.75
2023-03-02T19:15:54.150Z,101954.13
2023-03-02T19:18:23.431Z,101961.25
2023-03-02T19:20:51.472Z,101956.78
2023-03-02T19:23:18.025Z,101961.16
2023-03-02T19:25:45.805Z,101967.44
2023-03-02T19:28:12.550Z,101964.31
2023-03-02T19:30:40.086Z,101961.34
2023-03-02T19:33:07.330Z,101958.69
2023-03-02T19:35:34.123Z,101953.50
2023-03-02T19:38:01.189Z,101960.81
2023-03-02T19:40:30.200Z,101962.56
2023-03-02T19:42:57.165Z,101955.22
2023-03-02T19:45:28.569Z,101959.75
2023-03-02T19:47:59.513Z,101966.78
2023-03-02T19:50:27.032Z,101962.78
2023-03-02T19:52:55.053Z,101968.31
2023-03-02T19:55:22.430Z,101973.03
2023-03-02T19:57:56.517Z,101970.66
2023-03-02T20:00:23.834Z,101964.13
2023-03-02T20:02:50.294Z,101963.84
2023-03-02T20:05:17.295Z,101967.00
2023-03-02T20:07:44.137Z,101958.19
2023-03-02T20:10:11.410Z,101967.88
2023-03-02T20:12:37.844Z,101960.25
2023-03-02T20:15:06.001Z,101967.97
2023-03-02T20:17:32.496Z,101969.59
2023-03-02T20:20:01.156Z,101979.44
2023-03-02T20:22:27.616Z,101984.97
2023-03-02T20:24:54.042Z,101983.50
2023-03-02T20:27:21.202Z,101982.16
2023-03-02T20:29:48.212Z,101981.78
2023-03-02T20:32:16.187Z,101977.31
2023-03-02T20:34:43.345Z,101984.34
2023-03-02T20:37:13.633Z,101983.94
2023-03-02T20:39:42.207Z,101981.47
2023-03-02T20:42:09.262Z,101992.81
2023-03-02T20:44:36.055Z,101988.56
2023-03-02T20:47:08.210Z,101992.94
2023-03-02T20:49:35.763Z,101997.69
2023-03-02T20:52:02.843Z,101986.13
2023-03-02T20:54:34.422Z,101988.69
2023-03-02T20:57:01.023Z,101984.00
2023-03-02T20:59:28.451Z,101987.44
2023-03-02T21:01:54.858Z,101988.50
2023-03-02T21:04:21.554Z,101984.50
2023-03-02T21:06:48.178Z,101982.31
2023-03-02T21:09:15.055Z,101994.50
2023-03-02T21:11:41.486Z,101988.44
2023-03-02T21:14:08.268Z,101998.28
2023-03-02T21:16:37.964Z,101998.97
2023-03-02T21:19:08.598Z,101989.00
2023-03-02T21:21:41.317Z,101996.88
2023-03-02T21:24:09.898Z,102001.75
2023-03-02T21:26:36.853Z,101989.97
2023-03-02T21:29:05.184Z,101994.72
2023-03-02T21:31:31.730Z,101993.66
2023-03-02T21:33:58.233Z,101988.06
2023-03-02T21:36:26.558Z,101990.25
2023-03-02T21:38:53.065Z,101996.72
2023-03-02T21:41:20.089Z,101997.28
2023-03-02T21:43:47.677Z,101988.19
2023-03-02T21:46:16.752Z,101990.53
2023-03-02T21:48:43.683Z,101995.50
2023-03-02T21:51:12.262Z,101994.50
2023-03-02T21:53:38.721Z,101985.88
2023-03-02T21:56:05.944Z,102002.31
2023-03-02T21:58:32.429Z,101993.66
2023-03-02T22:00:58.840Z,101988.75
2023-03-02T22:03:25.327Z,101990.44
2023-03-02T22:05:51.920Z,101982.06
2023-03-02T22:08:20.694Z,101978.19
2023-03-02T22:10:51.273Z,101977.41
2023-03-02T22:13:26.693Z,101972.09
2023-03-02T22:16:13.495Z,101976.00
2023-03-02T22:18:40.549Z,101965.44
2023-03-02T22:21:29.879Z,101966.59
2023-03-02T22:24:10.503Z,101969.25
2023-03-02T22:26:56.909Z,101971.72
2023-03-02T22:29:26.410Z,101967.38
2023-03-02T22:31:55.663Z,101972.22
2023-03-02T22:34:28.967Z,101971.72
2023-03-02T22:36:58.777Z,101962.44
2023-03-02T22:39:31.564Z,101960.81
2023-03-02T22:42:01.610Z,101959.06
2023-03-02T22:44:28.073Z,101954.22
2023-03-02T22:46:56.579Z,101943.78
2023-03-02T22:49:23.092Z,101941.22
2023-03-02T22:51:49.510Z,101944.56
2023-03-02T22:54:24.275Z,101950.28
2023-03-02T22:56:52.700Z,101937.63
2023-03-02T22:59:24.288Z,101946.50
2023-03-02T23:01:52.773Z,101943.88
2023-03-02T23:04:20.606Z,101942.00
2023-03-02T23:06:54.157Z,101939.34
2023-03-02T23:09:32.319Z,101940.50
2023-03-02T23:12:01.918Z,101944.56
2023-03-02T23:14:49.857Z,101930.09
2023-03-02T23:17:23.861Z,101926.16
2023-03-02T23:19:51.328Z,101927.56
2023-03-02T23:22:18.218Z,101929.69
2023-03-02T23:24:44.930Z,101930.63
2023-03-02T23:27:11.628Z,101915.41
2023-03-02T23:29:38.257Z,101911.41
2023-03-02T23:32:04.855Z,101907.16
2023-03-02T23:34:31.372Z,101904.59
2023-03-02T23:36:58.655Z,101895.19
2023-03-02T23:39:25.935Z,101910.22
2023-03-02T23:41:52.949Z,101906.41
2023-03-02T23:44:19.505Z,101914.38
2023-03-02T23:46:47.343Z,101922.03
2023-03-02T23:49:14.126Z,101932.50
2023-03-02T23:51:40.872Z,101933.06
2023-03-02T23:54:07.903Z,101932.53
2023-03-02T23:56:34.319Z,101936.88
2023-03-02T23:59:02.141Z,101936.97
